createdAt,value
2023-01-21T00:01:21.487Z,33.60
2023-01-21T00:03:50.772Z,33.28
2023-01-21T00:06:18.605Z,33.42
2023-01-21T00:08:46.506Z,33.08
2023-01-21T00:11:15.987Z,32.72
2023-01-21T00:13:44.561Z,32.60
2023-01-21T00:16:13.114Z,32.60
2023-01-21T00:18:40.978Z,31.50
2023-01-21T00:21:10.510Z,30.63
2023-01-21T00:23:38.355Z,30.90
2023-01-21T00:26:08.504Z,30.05
2023-01-21T00:28:37.284Z,32.15
2023-01-21T00:31:06.967Z,31.27
2023-01-21T00:33:35.646Z,31.63
2023-01-21T00:36:04.908Z,30.30
2023-01-21T00:38:34.442Z,30.52
2023-01-21T00:41:02.996Z,29.80
2023-01-21T00:43:31.248Z,31.40
2023-01-21T00:45:59.449Z,30.92
2023-01-21T00:48:28.525Z,30.40
2023-01-21T00:51:00.313Z,29.77
2023-01-21T00:53:28.924Z,30.67
2023-01-21T00:56:01.612Z,29.50
2023-01-21T00:58:30.075Z,30.20
2023-01-21T01:01:02.517Z,30.85
2023-01-21T01:03:30.489Z,29.90
2023-01-21T01:06:03.801Z,30.52
2023-01-21T01:08:31.857Z,31.08
2023-01-21T01:11:01.892Z,32.13
2023-01-21T01:13:30.248Z,30.70
2023-01-21T01:15:58.649Z,30.85
2023-01-21T01:18:28.286Z,30.77
2023-01-21T01:20:56.464Z,29.38
2023-01-21T01:23:24.246Z,29.60
2023-01-21T01:26:01.459Z,30.17
2023-01-21T01:28:30.023Z,30.67
2023-01-21T01:30:58.280Z,30.05
2023-01-21T01:33:26.532Z,30.73
2023-01-21T01:35:54.443Z,31.77
2023-01-21T01:38:23.920Z,31.15
2023-01-21T01:40:53.668Z,29.50
2023-01-21T01:43:25.449Z,30.33
2023-01-21T01:45:53.687Z,30.60
2023-01-21T01:48:25.026Z,29.58
2023-01-21T01:50:53.256Z,31.02
2023-01-21T01:53:21.661Z,30.75
2023-01-21T01:55:50.571Z,29.38
2023-01-21T01:58:20.459Z,30.70
2023-01-21T02:00:49.711Z,38.28
2023-01-21T02:03:36.470Z,40.45
2023-01-21T02:06:04.655Z,44.72
2023-01-21T02:08:35.992Z,35.88
2023-01-21T02:11:07.710Z,34.88
2023-01-21T02:13:35.611Z,34.73
2023-01-21T02:16:36.355Z,33.05
2023-01-21T02:19:28.300Z,32.03
2023-01-21T02:22:03.844Z,34.10
2023-01-21T02:25:11.328Z,34.00
2023-01-21T02:27:48.091Z,35.00
2023-01-21T02:31:00.738Z,33.70
2023-01-21T02:33:57.154Z,32.97
2023-01-21T02:36:37.595Z,32.67
2023-01-21T02:39:13.760Z,32.30
2023-01-21T02:41:52.279Z,31.70
2023-01-21T02:44:32.377Z,31.08
2023-01-21T02:47:05.736Z,33.20
2023-01-21T02:49:40.659Z,33.05
2023-01-21T02:52:08.543Z,33.05
2023-01-21T02:54:54.487Z,32.53
2023-01-21T02:57:38.144Z,31.97
2023-01-21T03:00:10.641Z,31.35
2023-01-21T03:03:15.658Z,32.13
2023-01-21T03:06:04.536Z,31.90
2023-01-21T03:08:38.144Z,31.15
2023-01-21T03:11:14.142Z,32.70
2023-01-21T03:14:02.980Z,31.70
2023-01-21T03:16:53.075Z,30.48
2023-01-21T03:19:24.481Z,32.05
2023-01-21T03:21:56.826Z,30.63
2023-01-21T03:24:25.305Z,32.97
2023-01-21T03:26:57.120Z,31.73
2023-01-21T03:29:28.416Z,31.60
2023-01-21T03:31:59.832Z,31.30
2023-01-21T03:34:30.665Z,31.30
2023-01-21T03:37:05.544Z,31.50
2023-01-21T03:39:39.651Z,31.75
2023-01-21T03:42:08.668Z,32.40
2023-01-21T03:44:36.939Z,30.38
2023-01-21T03:47:15.262Z,31.83
2023-01-21T03:49:48.506Z,31.73
2023-01-21T03:52:19.907Z,32.88
2023-01-21T03:54:48.475Z,31.20
2023-01-21T03:57:16.488Z,33.35
2023-01-21T03:59:45.867Z,30.95
2023-01-21T04:02:19.121Z,32.72
2023-01-21T04:04:47.419Z,33.92
2023-01-21T04:07:17.206Z,33.65
2023-01-21T04:09:45.189Z,33.80
2023-01-21T04:12:13.237Z,35.60
2023-01-21T04:14:41.009Z,33.92
2023-01-21T04:17:08.908Z,36.05
2023-01-21T04:19:36.919Z,35.22
2023-01-21T04:22:04.705Z,35.38
2023-01-21T04:24:34.812Z,35.35
2023-01-21T04:27:02.679Z,35.15
2023-01-21T04:29:30.443Z,35.77
2023-01-21T04:31:58.284Z,37.15
2023-01-21T04:34:26.160Z,37.77
2023-01-21T04:36:53.897Z,36.95
2023-01-21T04:39:21.710Z,37.93
2023-01-21T04:41:51.572Z,38.95
2023-01-21T04:44:19.317Z,37.17
2023-01-21T04:46:47.159Z,36.03
2023-01-21T04:49:15.036Z,36.17
2023-01-21T04:51:42.831Z,37.67
2023-01-21T04:54:11.212Z,37.83
2023-01-21T04:56:39.262Z,36.60
2023-01-21T04:59:08.467Z,37.45
2023-01-21T05:01:36.264Z,38.53
2023-01-21T05:04:04.360Z,38.38
2023-01-21T05:06:32.134Z,37.47
2023-01-21T05:08:59.920Z,36.50
2023-01-21T05:11:27.723Z,36.50
2023-01-21T05:13:55.518Z,40.45
2023-01-21T05:16:24.645Z,36.30
2023-01-21T05:18:52.489Z,38.10
2023-01-21T05:21:20.293Z,36.35
2023-01-21T05:23:48.057Z,38.60
2023-01-21T05:26:15.962Z,38.22
2023-01-21T05:28:43.722Z,37.50
2023-01-21T05:31:11.628Z,39.70
2023-01-21T05:33:43.840Z,36.90
2023-01-21T05:36:11.679Z,36.45
2023-01-21T05:38:39.613Z,39.25
2023-01-21T05:41:07.419Z,37.13
2023-01-21T05:43:35.223Z,37.22
2023-01-21T05:46:03.067Z,36.03
2023-01-21T05:48:31.877Z,36.60
2023-01-21T05:51:01.191Z,39.03
2023-01-21T05:53:29.101Z,38.38
2023-01-21T05:55:57.927Z,38.03
2023-01-21T05:58:26.084Z,39.00
2023-01-21T06:00:54.381Z,39.83
2023-01-21T06:03:22.208Z,37.20
2023-01-21T06:05:50.994Z,38.40
2023-01-21T06:08:20.324Z,42.05
2023-01-21T06:10:48.226Z,37.22
2023-01-21T06:13:16.975Z,37.67
2023-01-21T06:15:44.821Z,36.67
2023-01-21T06:18:12.637Z,35.58
2023-01-21T06:20:40.434Z,36.13
2023-01-21T06:23:08.388Z,35.33
2023-01-21T06:25:37.588Z,33.67
2023-01-21T06:28:05.489Z,36.83
2023-01-21T06:30:33.346Z,33.47
2023-01-21T06:33:01.154Z,35.15
2023-01-21T06:35:28.902Z,29.10
2023-01-21T06:37:56.692Z,31.08
2023-01-21T06:40:25.565Z,30.95
2023-01-21T06:42:54.860Z,31.63
2023-01-21T06:45:22.660Z,32.60
2023-01-21T06:47:50.551Z,30.90
2023-01-21T06:50:19.212Z,31.75
2023-01-21T06:52:48.810Z,31.92
2023-01-21T06:55:18.048Z,31.52
2023-01-21T06:57:55.204Z,30.92
2023-01-21T07:00:27.548Z,31.77
2023-01-21T07:03:04.369Z,33.00
2023-01-21T07:05:41.273Z,33.95
2023-01-21T07:08:13.907Z,32.17
2023-01-21T07:10:42.212Z,31.65
2023-01-21T07:13:10.118Z,32.80
2023-01-21T07:15:39.234Z,33.53
2023-01-21T07:18:07.563Z,33.05
2023-01-21T07:20:35.570Z,30.95
2023-01-21T07:23:03.315Z,30.42
2023-01-21T07:25:32.309Z,30.42
2023-01-21T07:28:00.139Z,31.38
2023-01-21T07:30:28.000Z,31.30
2023-01-21T07:32:57.131Z,29.98
2023-01-21T07:35:24.916Z,32.10
2023-01-21T07:37:52.932Z,31.42
2023-01-21T07:40:22.005Z,31.25
2023-01-21T07:42:52.725Z,32.45
2023-01-21T07:45:22.323Z,31.40
2023-01-21T07:47:50.645Z,32.43
2023-01-21T07:50:20.039Z,32.07
2023-01-21T07:52:48.082Z,34.03
2023-01-21T07:55:17.271Z,34.50
2023-01-21T07:57:45.185Z,32.07
2023-01-21T08:00:14.196Z,34.58
2023-01-21T08:02:42.204Z,31.80
2023-01-21T08:05:10.882Z,31.10
2023-01-21T08:07:40.364Z,32.65
2023-01-21T08:10:08.685Z,31.10
2023-01-21T08:12:38.535Z,31.50
2023-01-21T08:15:07.817Z,32.00
2023-01-21T08:17:38.149Z,32.80
2023-01-21T08:20:06.982Z,32.45
2023-01-21T08:22:34.851Z,33.08
2023-01-21T08:25:05.088Z,31.58
2023-01-21T08:27:33.000Z,32.78
2023-01-21T08:30:00.827Z,34.20
2023-01-21T08:32:31.463Z,31.75
2023-01-21T08:34:59.541Z,32.03
2023-01-21T08:37:27.406Z,32.97
2023-01-21T08:39:55.199Z,33.40
2023-01-21T08:42:24.427Z,34.38
2023-01-21T08:44:54.009Z,33.92
2023-01-21T08:47:21.888Z,33.20
2023-01-21T08:49:49.705Z,32.95
2023-01-21T08:52:17.959Z,32.40
2023-01-21T08:54:45.735Z,34.95
2023-01-21T08:57:13.537Z,34.28
2023-01-21T08:59:42.792Z,32.33
2023-01-21T09:02:12.660Z,32.85
2023-01-21T09:04:40.607Z,33.30
2023-01-21T09:07:08.691Z,32.95
2023-01-21T09:09:36.953Z,32.40
2023-01-21T09:12:06.619Z,33.13
2023-01-21T09:14:34.561Z,31.90
2023-01-21T09:17:03.734Z,32.15
2023-01-21T09:19:31.713Z,33.50
2023-01-21T09:21:59.582Z,33.57
2023-01-21T09:24:27.399Z,32.83
2023-01-21T09:26:55.311Z,32.30
2023-01-21T09:29:23.433Z,35.30
2023-01-21T09:31:51.344Z,32.53
2023-01-21T09:34:20.505Z,32.15
2023-01-21T09:36:48.365Z,32.00
2023-01-21T09:39:16.225Z,33.00
2023-01-21T09:41:46.590Z,34.05
2023-01-21T09:44:22.170Z,33.13
2023-01-21T09:46:55.962Z,33.30
2023-01-21T09:49:31.538Z,30.65
2023-01-21T09:52:07.312Z,31.65
2023-01-21T09:54:37.871Z,32.83
2023-01-21T09:57:37.406Z,31.95
2023-01-21T10:00:20.866Z,32.13
2023-01-21T10:02:57.498Z,31.33
2023-01-21T10:05:51.454Z,33.30
2023-01-21T10:08:32.500Z,31.00
2023-01-21T10:11:13.587Z,30.65
2023-01-21T10:13:58.901Z,29.98
2023-01-21T10:16:36.364Z,30.98
2023-01-21T10:19:06.651Z,32.10
2023-01-21T10:21:40.432Z,30.90
2023-01-21T10:24:14.043Z,30.92
2023-01-21T10:26:44.404Z,29.40
2023-01-21T10:29:17.361Z,27.80
2023-01-21T10:31:50.225Z,28.70
2023-01-21T10:34:20.193Z,28.60
2023-01-21T10:37:00.398Z,30.48
2023-01-21T10:39:38.635Z,29.95
2023-01-21T10:42:25.297Z,28.35
2023-01-21T10:45:01.144Z,28.20
2023-01-21T10:47:37.741Z,29.88
2023-01-21T10:50:22.001Z,27.23
2023-01-21T10:52:57.619Z,28.52
2023-01-21T10:55:41.743Z,30.38
2023-01-21T10:58:20.127Z,29.20
2023-01-21T11:00:50.461Z,31.92
2023-01-21T11:03:23.520Z,28.67
2023-01-21T11:05:51.476Z,29.23
2023-01-21T11:08:23.516Z,26.52
2023-01-21T11:10:55.099Z,28.88
2023-01-21T11:13:23.405Z,29.85
2023-01-21T11:15:53.940Z,29.42
2023-01-21T11:18:31.153Z,27.15
2023-01-21T11:21:00.711Z,26.60
2023-01-21T11:23:31.769Z,27.20
2023-01-21T11:26:04.297Z,30.20
2023-01-21T11:28:32.289Z,26.67
2023-01-21T11:31:13.753Z,26.13
2023-01-21T11:33:43.385Z,25.60
2023-01-21T11:36:14.415Z,26.65
2023-01-21T11:38:44.019Z,27.43
2023-01-21T11:41:18.164Z,26.73
2023-01-21T11:43:48.638Z,28.13
2023-01-21T11:46:38.168Z,28.95
2023-01-21T11:49:26.857Z,26.23
2023-01-21T11:52:15.977Z,29.15
2023-01-21T11:54:45.378Z,27.90
2023-01-21T11:57:29.143Z,26.33
2023-01-21T12:00:13.398Z,26.33
2023-01-21T12:02:46.584Z,31.77
2023-01-21T12:05:17.990Z,27.17
2023-01-21T12:07:51.299Z,25.70
2023-01-21T12:10:27.545Z,27.88
2023-01-21T12:13:17.247Z,27.08
2023-01-21T12:16:11.931Z,25.60
2023-01-21T12:18:55.980Z,25.10
2023-01-21T12:21:36.084Z,24.15
2023-01-21T12:24:19.096Z,22.60
2023-01-21T12:26:56.848Z,24.87
2023-01-21T12:29:34.813Z,27.88
2023-01-21T12:32:07.076Z,24.15
2023-01-21T12:34:40.831Z,23.70
2023-01-21T12:37:17.247Z,24.45
2023-01-21T12:39:48.387Z,24.60
2023-01-21T12:42:22.814Z,26.75
2023-01-21T12:44:54.012Z,23.88
2023-01-21T12:47:28.897Z,26.17
2023-01-21T12:50:17.774Z,23.73
2023-01-21T12:52:53.461Z,25.20
2023-01-21T12:55:25.375Z,24.67
2023-01-21T12:58:03.655Z,23.88
2023-01-21T13:00:34.929Z,24.10
2023-01-21T13:03:17.183Z,24.35
2023-01-21T13:05:53.381Z,24.83
2023-01-21T13:08:39.603Z,22.73
2023-01-21T13:11:14.253Z,25.23
2023-01-21T13:13:51.055Z,23.08
2023-01-21T13:16:20.060Z,23.02
2023-01-21T13:18:54.178Z,21.73
2023-01-21T13:21:32.013Z,20.13
2023-01-21T13:24:06.596Z,22.58
2023-01-21T13:26:43.966Z,22.05
2023-01-21T13:29:19.463Z,19.50
2023-01-21T13:31:52.943Z,20.48
2023-01-21T13:34:27.115Z,22.52
2023-01-21T13:37:06.612Z,24.48
2023-01-21T13:39:44.198Z,22.85
2023-01-21T13:42:30.489Z,22.50
2023-01-21T13:45:09.165Z,22.00
2023-01-21T13:47:58.877Z,23.00
2023-01-21T13:50:51.263Z,22.15
2023-01-21T13:53:42.077Z,21.80
2023-01-21T13:56:31.776Z,22.13
2023-01-21T13:59:02.891Z,21.85
2023-01-21T14:01:38.888Z,22.52
2023-01-21T14:04:12.465Z,22.77
2023-01-21T14:06:46.503Z,21.65
2023-01-21T14:09:18.762Z,22.60
2023-01-21T14:11:54.095Z,22.58
2023-01-21T14:15:08.216Z,23.52
2023-01-21T14:18:05.175Z,24.10
2023-01-21T14:20:50.494Z,24.13
2023-01-21T14:23:41.480Z,21.05
2023-01-21T14:26:24.339Z,22.97
2023-01-21T14:29:00.971Z,22.02
2023-01-21T14:31:35.751Z,25.40
2023-01-21T14:34:17.863Z,22.80
2023-01-21T14:36:51.946Z,21.85
2023-01-21T14:39:38.526Z,22.08
2023-01-21T14:42:12.567Z,21.45
2023-01-21T14:44:45.514Z,21.77
2023-01-21T14:47:18.660Z,21.45
2023-01-21T14:49:49.599Z,22.20
2023-01-21T14:52:19.994Z,23.23
2023-01-21T14:54:48.837Z,23.40
2023-01-21T14:57:32.953Z,23.07
2023-01-21T15:00:13.087Z,22.00
2023-01-21T15:02:44.347Z,21.80
2023-01-21T15:05:26.132Z,21.50
2023-01-21T15:08:06.817Z,21.80
2023-01-21T15:10:38.711Z,20.95
2023-01-21T15:13:14.837Z,22.48
2023-01-21T15:16:12.984Z,22.38
2023-01-21T15:18:43.962Z,20.60
2023-01-21T15:21:34.094Z,21.35
2023-01-21T15:24:21.028Z,21.33
2023-01-21T15:27:12.827Z,20.38
2023-01-21T15:29:41.614Z,20.73
2023-01-21T15:32:38.784Z,22.45
2023-01-21T15:35:16.668Z,19.40
2023-01-21T15:37:46.916Z,21.20
2023-01-21T15:40:19.709Z,21.92
2023-01-21T15:42:55.473Z,18.77
2023-01-21T15:45:33.784Z,21.08
2023-01-21T15:48:30.182Z,19.05
2023-01-21T15:51:13.244Z,20.03
2023-01-21T15:53:55.219Z,20.65
2023-01-21T15:56:45.973Z,19.27
2023-01-21T15:59:28.018Z,18.73
2023-01-21T16:02:16.519Z,19.80
2023-01-21T16:04:57.609Z,17.80
2023-01-21T16:07:33.902Z,19.73
2023-01-21T16:10:13.046Z,18.95
2023-01-21T16:12:48.632Z,17.10
2023-01-21T16:15:24.893Z,18.10
2023-01-21T16:18:11.447Z,18.13
2023-01-21T16:20:45.923Z,18.05
2023-01-21T16:23:16.804Z,18.38
2023-01-21T16:25:49.343Z,18.00
2023-01-21T16:28:17.423Z,16.40
2023-01-21T16:30:54.509Z,17.15
2023-01-21T16:33:22.399Z,17.50
2023-01-21T16:35:53.869Z,16.83
2023-01-21T16:38:23.485Z,17.77
2023-01-21T16:41:08.971Z,16.63
2023-01-21T16:43:38.926Z,17.92
2023-01-21T16:46:12.341Z,16.93
2023-01-21T16:48:40.935Z,16.88
2023-01-21T16:51:18.318Z,18.02
2023-01-21T16:53:46.289Z,17.40
2023-01-21T16:56:26.198Z,17.23
2023-01-21T16:58:55.554Z,18.65
2023-01-21T17:01:25.481Z,18.00
2023-01-21T17:03:53.506Z,17.38
2023-01-21T17:06:28.419Z,18.25
2023-01-21T17:09:00.881Z,16.80
2023-01-21T17:11:31.275Z,17.55
2023-01-21T17:14:01.094Z,16.85
2023-01-21T17:16:31.872Z,16.45
2023-01-21T17:19:02.407Z,17.15
2023-01-21T17:21:37.186Z,16.45
2023-01-21T17:24:07.715Z,17.25
2023-01-21T17:26:39.248Z,16.98
2023-01-21T17:29:12.937Z,18.58
2023-01-21T17:31:43.222Z,17.43
2023-01-21T17:34:22.950Z,16.20
2023-01-21T17:36:53.611Z,17.63
2023-01-21T17:40:01.148Z,18.27
2023-01-21T17:42:38.557Z,17.48
2023-01-21T17:45:08.371Z,19.27
2023-01-21T17:47:58.733Z,19.23
2023-01-21T17:50:28.266Z,18.20
2023-01-21T17:53:01.426Z,20.17
2023-01-21T17:55:32.498Z,22.35
2023-01-21T17:58:04.550Z,20.90
2023-01-21T18:00:43.028Z,18.52
2023-01-21T18:03:11.877Z,17.20
2023-01-21T18:05:43.091Z,18.52
2023-01-21T18:08:16.546Z,17.42
2023-01-21T18:10:45.856Z,20.27
2023-01-21T18:13:14.243Z,18.08
2023-01-21T18:15:44.062Z,19.25
2023-01-21T18:18:17.921Z,19.55
2023-01-21T18:20:47.317Z,18.77
2023-01-21T18:23:18.073Z,19.40
2023-01-21T18:25:48.644Z,19.70
2023-01-21T18:28:20.225Z,19.13
2023-01-21T18:30:48.759Z,18.95
2023-01-21T18:33:16.807Z,19.52
2023-01-21T18:35:46.617Z,19.75
2023-01-21T18:38:18.958Z,20.37
2023-01-21T18:40:47.056Z,20.27
2023-01-21T18:43:14.982Z,19.83
2023-01-21T18:45:43.038Z,20.75
2023-01-21T18:48:12.580Z,19.83
2023-01-21T18:50:40.421Z,27.55
2023-01-21T18:53:09.179Z,24.58
2023-01-21T18:55:38.486Z,21.55
2023-01-21T18:58:14.150Z,20.48
2023-01-21T19:00:42.523Z,21.53
2023-01-21T19:03:13.525Z,21.40
2023-01-21T19:05:43.865Z,21.85
2023-01-21T19:08:15.232Z,20.08
2023-01-21T19:10:44.636Z,20.52
2023-01-21T19:13:13.284Z,20.25
2023-01-21T19:15:41.674Z,22.65
2023-01-21T19:18:12.334Z,22.02
2023-01-21T19:20:41.547Z,20.93
2023-01-21T19:23:15.173Z,22.70
2023-01-21T19:25:47.708Z,23.33
2023-01-21T19:28:15.816Z,22.05
2023-01-21T19:30:45.142Z,19.95
2023-01-21T19:33:13.441Z,20.85
2023-01-21T19:35:44.226Z,21.52
2023-01-21T19:38:15.090Z,21.52
2023-01-21T19:40:45.554Z,21.67
2023-01-21T19:43:14.681Z,21.92
2023-01-21T19:45:43.149Z,20.15
2023-01-21T19:48:13.385Z,21.05
2023-01-21T19:50:42.278Z,21.58
2023-01-21T19:53:11.801Z,20.95
2023-01-21T19:55:40.907Z,20.98
2023-01-21T19:58:19.452Z,20.88
2023-01-21T20:00:49.434Z,21.42
2023-01-21T20:03:18.021Z,20.58
2023-01-21T20:05:46.461Z,20.75
2023-01-21T20:08:16.356Z,21.08
2023-01-21T20:10:44.620Z,21.30
2023-01-21T20:13:14.912Z,21.05
2023-01-21T20:15:44.924Z,20.23
2023-01-21T20:18:18.892Z,21.20
2023-01-21T20:20:46.929Z,21.42
2023-01-21T20:23:16.166Z,21.55
2023-01-21T20:25:46.021Z,21.38
2023-01-21T20:28:19.307Z,20.75
2023-01-21T20:30:48.093Z,22.70
2023-01-21T20:33:18.776Z,21.38
2023-01-21T20:35:48.447Z,20.77
2023-01-21T20:38:19.075Z,21.73
2023-01-21T20:40:46.976Z,21.77
2023-01-21T20:43:17.888Z,22.05
2023-01-21T20:45:48.957Z,22.08
2023-01-21T20:48:19.970Z,21.88
2023-01-21T20:50:48.650Z,22.23
2023-01-21T20:53:18.793Z,22.13
2023-01-21T20:55:48.641Z,22.23
2023-01-21T20:58:19.282Z,22.20
2023-01-21T21:00:47.945Z,21.40
2023-01-21T21:03:16.567Z,21.70
2023-01-21T21:05:44.680Z,21.95
2023-01-21T21:08:15.885Z,21.73
2023-01-21T21:10:44.099Z,21.55
2023-01-21T21:13:12.782Z,21.88
2023-01-21T21:15:45.719Z,22.63
2023-01-21T21:18:15.138Z,23.48
2023-01-21T21:20:43.600Z,21.63
2023-01-21T21:23:13.881Z,23.42
2023-01-21T21:25:44.498Z,23.00
2023-01-21T21:28:14.956Z,22.80
2023-01-21T21:30:44.811Z,22.70
2023-01-21T21:33:18.156Z,22.55
2023-01-21T21:35:46.960Z,22.80
2023-01-21T21:38:17.593Z,22.85
2023-01-21T21:40:47.607Z,23.70
2023-01-21T21:43:32.576Z,23.15
2023-01-21T21:46:23.276Z,22.40
2023-01-21T21:48:52.462Z,22.30
2023-01-21T21:51:21.998Z,22.15
2023-01-21T21:53:50.396Z,23.25
2023-01-21T21:56:20.671Z,22.05
2023-01-21T21:58:48.908Z,22.00
2023-01-21T22:01:20.919Z,22.30
2023-01-21T22:03:49.150Z,22.65
2023-01-21T22:06:19.790Z,21.67
2023-01-21T22:08:48.122Z,22.00
2023-01-21T22:11:17.677Z,21.97
2023-01-21T22:13:50.062Z,22.40
2023-01-21T22:16:21.593Z,23.23
2023-01-21T22:18:49.410Z,22.88
2023-01-21T22:21:19.019Z,21.85
2023-01-21T22:23:47.332Z,22.52
2023-01-21T22:26:17.037Z,22.35
2023-01-21T22:28:45.615Z,22.63
2023-01-21T22:31:15.899Z,23.40
2023-01-21T22:33:45.390Z,23.55
2023-01-21T22:36:15.333Z,22.92
2023-01-21T22:38:43.431Z,22.30
2023-01-21T22:41:12.654Z,23.27
2023-01-21T22:43:44.666Z,23.40
2023-01-21T22:46:14.738Z,24.23
2023-01-21T22:48:42.624Z,23.85
2023-01-21T22:51:13.443Z,23.95
2023-01-21T22:53:41.442Z,23.65
2023-01-21T22:56:09.402Z,23.92
2023-01-21T22:58:37.611Z,22.27
2023-01-21T23:01:06.164Z,23.77
2023-01-21T23:03:34.393Z,24.85
2023-01-21T23:06:06.369Z,23.95
2023-01-21T23:08:37.399Z,23.98
2023-01-21T23:11:07.110Z,24.23
2023-01-21T23:13:35.763Z,24.73
2023-01-21T23:16:06.537Z,23.35
2023-01-21T23:18:36.323Z,24.42
2023-01-21T23:21:07.281Z,24.50
2023-01-21T23:23:37.831Z,24.65
2023-01-21T23:26:07.333Z,23.75
2023-01-21T23:28:38.648Z,24.98
2023-01-21T23:31:07.622Z,24.00
2023-01-21T23:33:35.940Z,23.65
2023-01-21T23:36:03.927Z,23.40
2023-01-21T23:38:31.991Z,24.33
2023-01-21T23:41:06.096Z,23.23
2023-01-21T23:43:33.990Z,23.58
2023-01-21T23:46:01.833Z,23.38
2023-01-21T23:48:29.780Z,23.67
2023-01-21T23:51:03.640Z,24.25
2023-01-21T23:53:31.503Z,23.73
2023-01-21T23:56:08.824Z,22.35
2023-01-21T23:58:36.913Z,23.02
